Terminal Aerodrome Forecast
Issued by NWS

Home | Current Version | Previous Version | Graphics & Text | Print | Product List | Glossary On
Versions: 1 2 3 4 5 6 7 8 9 10 11 12 13 14 15 16 17 18 19 20 21 22 23 24 25
027
FTUS43 KLOT 200254 AAA
TAFORD
TAF AMD
KORD 200254Z 2003/2106 12005KT P6SM BKN250
     FM201000 15006KT 3SM BR SCT006 BKN250
      TEMPO 2011/2015 1 1/2SM BR OVC006
     FM201600 16010KT 5SM BR FEW006 BKN015 OVC200
     FM201900 15012G18KT P6SM BKN150
     FM210000 16014G24KT P6SM OVC080
     FM210400 19013G23KT P6SM VCSH OVC050 WS015/20045KT
      TEMPO 2104/2106 4SM -SHRA BR OVC015=

USA.gov is the U.S. government's official web portal to all federal, state and local government web resources and services.